Lancaster Airport
KLNS : now visible

Airfield :











YOU CAN JOIN US ON...

 
LOGIN :

Register | Disclaimer

   EN    FR    IT 

 









Legend :    VFR   Marginal VFR   IFR   Intensive IFR   Very Intensive IFR
Visi :
Ceiling :
>= 8 km
>= 3000ft
5 to 8 km
1000 to 3000 ft
1500m to 5 km
500 to 1000 ft
800 to 1500m
200 to 500 ft
< 800m
< 200 ft
Symbols :   Thunderstorms  Fog  Heavy snow  Heavy precipitations  Wind > 20 kt






- Airport Elevation : 403 ft
- IATA code : LNS


KLNS - Lancaster

CURRENT METAR :
  • 211453Z 17003KT 7SM OVC003 18/17 A3028 RMK AO2 SLP254 T01780167 51009

EXPIRED METARs :
  • 211442Z 17004KT 4SM BR OVC002 18/17 A3028 RMK AO2 T01780167
  • 211414Z 14005KT 2 1/2SM BR OVC002 18/16 A3028 RMK AO2 T01780161
  • 211353Z 14005KT 1 1/2SM BR OVC002 18/16 A3028 RMK AO2 SLP254 T01780161
  • 211300Z 15004KT 1 1/4SM BR OVC002 17/16 A3028 RMK AO2 T01720161
  • 211253Z 16005KT 3/4SM BR OVC002 17/16 A3027 RMK AO2 SLP251 T01720161
  • 211210Z 00000KT 1/2SM FG VV003 17/16 A3027 RMK AO2 T01720156

TAF KLNS
Valid from the 21 at 14:00 until the 22 at 12:00 UTC


211408Z 2114/2212 14005KT 1 1/2SM BR OVC002
TEMPO 2115/2117 3SM BR BKN007
FM211700 21007KT P6SM BKN015
FM211900 20008KT P6SM SCT025
FM212200 20005KT P6SM SCT050
FM220400 VRB02KT 1SM BR BKN005
KZNY FIR / North America



MET'MAP, your aeronautical weather chart ! - Copyright ORBIFLY December 2007 - Disclaimer

ORBIFLY MET'MAP TEAM :

Programming & Development : Alexandra Zaïnal
Concept & original design : Baudouin d'Aumeries
Assistance for programming : Marc-Olivier Méhu
Technical & hardware support : Manuel Goepfert

Contact : metmap@orbifly.com




SOURCES & CREDITS :

   NOAA       Earth
Advisory